sensor_id;sensor_type;location;lat;lon;timestamp;pressure;altitude;pressure_sealevel;temperature;humidity
11085;BME280;5596;46.826;8.650;2023-05-19T00:01:41;96490.22;;;9.88;100.00
11085;BME280;5596;46.826;8.650;2023-05-19T00:04:09;96488.84;;;9.85;100.00
11085;BME280;5596;46.826;8.650;2023-05-19T00:06:39;96481.03;;;9.77;100.00
11085;BME280;5596;46.826;8.650;2023-05-19T00:09:07;96492.69;;;9.71;100.00
11085;BME280;5596;46.826;8.650;2023-05-19T00:11:36;96484.81;;;9.70;100.00
11085;BME280;5596;46.826;8.650;2023-05-19T00:14:04;96487.13;;;9.66;100.00
11085;BME280;5596;46.826;8.650;2023-05-19T00:16:31;96490.88;;;9.65;100.00
11085;BME280;5596;46.826;8.650;2023-05-19T00:18:59;96482.16;;;9.63;100.00
11085;BME280;5596;46.826;8.650;2023-05-19T00:21:26;96479.47;;;9.63;100.00
11085;BME280;5596;46.826;8.650;2023-05-19T00:23:53;96476.13;;;9.68;100.00
11085;BME280;5596;46.826;8.650;2023-05-19T00:26:20;96469.44;;;9.70;100.00
11085;BME280;5596;46.826;8.650;2023-05-19T00:28:57;96462.38;;;9.76;100.00
11085;BME280;5596;46.826;8.650;2023-05-19T00:31:23;96468.13;;;9.79;100.00
11085;BME280;5596;46.826;8.650;2023-05-19T00:33:51;96463.34;;;9.81;100.00
11085;BME280;5596;46.826;8.650;2023-05-19T00:36:18;96463.56;;;9.80;100.00
11085;BME280;5596;46.826;8.650;2023-05-19T00:38:44;96457.34;;;9.79;100.00
11085;BME280;5596;46.826;8.650;2023-05-19T00:41:11;96461.91;;;9.79;100.00
11085;BME280;5596;46.826;8.650;2023-05-19T00:43:38;96453.00;;;9.78;100.00
11085;BME280;5596;46.826;8.650;2023-05-19T00:46:07;96455.94;;;9.77;100.00
11085;BME280;5596;46.826;8.650;2023-05-19T00:48:35;96455.31;;;9.75;100.00
11085;BME280;5596;46.826;8.650;2023-05-19T00:51:01;96453.81;;;9.79;100.00
11085;BME280;5596;46.826;8.650;2023-05-19T00:53:30;96449.84;;;9.81;100.00
11085;BME280;5596;46.826;8.650;2023-05-19T00:55:59;96449.03;;;9.81;100.00
11085;BME280;5596;46.826;8.650;2023-05-19T00:58:26;96451.50;;;9.82;100.00
11085;BME280;5596;46.826;8.650;2023-05-19T01:00:55;96448.97;;;9.87;100.00
11085;BME280;5596;46.826;8.650;2023-05-19T01:03:29;96451.44;;;9.89;100.00
11085;BME280;5596;46.826;8.650;2023-05-19T01:05:56;96448.53;;;9.91;100.00
11085;BME280;5596;46.826;8.650;2023-05-19T01:08:30;96442.50;;;9.88;100.00
11085;BME280;5596;46.826;8.650;2023-05-19T01:10:57;96443.13;;;9.91;100.00
11085;BME280;5596;46.826;8.650;2023-05-19T01:13:24;96444.16;;;9.90;100.00
11085;BME280;5596;46.826;8.650;2023-05-19T01:15:55;96444.16;;;9.90;100.00
11085;BME280;5596;46.826;8.650;2023-05-19T01:18:24;96447.91;;;9.88;100.00
11085;BME280;5596;46.826;8.650;2023-05-19T01:21:01;96442.97;;;9.85;100.00
11085;BME280;5596;46.826;8.650;2023-05-19T01:23:32;96437.94;;;9.89;100.00
11085;BME280;5596;46.826;8.650;2023-05-19T01:31:35;96441.19;;;9.98;100.00
11085;BME280;5596;46.826;8.650;2023-05-19T01:34:06;96437.66;;;9.97;100.00
11085;BME280;5596;46.826;8.650;2023-05-19T01:36:35;96441.78;;;10.00;100.00
11085;BME280;5596;46.826;8.650;2023-05-19T01:39:04;96452.56;;;10.00;100.00
11085;BME280;5596;46.826;8.650;2023-05-19T01:41:32;96452.56;;;10.00;100.00
11085;BME280;5596;46.826;8.650;2023-05-19T01:43:59;96448.66;;;9.96;100.00
11085;BME280;5596;46.826;8.650;2023-05-19T01:46:26;96446.22;;;9.94;100.00
11085;BME280;5596;46.826;8.650;2023-05-19T01:48:54;96448.09;;;9.94;100.00
11085;BME280;5596;46.826;8.650;2023-05-19T01:51:21;96438.94;;;9.95;100.00
11085;BME280;5596;46.826;8.650;2023-05-19T01:53:48;96443.03;;;9.97;100.00
11085;BME280;5596;46.826;8.650;2023-05-19T01:56:15;96449.88;;;10.00;100.00
11085;BME280;5596;46.826;8.650;2023-05-19T01:58:47;96441.78;;;10.00;100.00
11085;BME280;5596;46.826;8.650;2023-05-19T02:01:24;96439.09;;;10.00;100.00
11085;BME280;5596;46.826;8.650;2023-05-19T02:04:11;96445.53;;;9.99;100.00
11085;BME280;5596;46.826;8.650;2023-05-19T02:06:40;96438.25;;;9.99;100.00
11085;BME280;5596;46.826;8.650;2023-05-19T02:09:12;96441.25;;;9.91;100.00
11085;BME280;5596;46.826;8.650;2023-05-19T02:11:45;96441.94;;;9.86;100.00
11085;BME280;5596;46.826;8.650;2023-05-19T02:14:14;96437.34;;;9.87;100.00
11085;BME280;5596;46.826;8.650;2023-05-19T02:16:44;96435.94;;;9.84;100.00
11085;BME280;5596;46.826;8.650;2023-05-19T02:19:22;96439.50;;;9.78;100.00
11085;BME280;5596;46.826;8.650;2023-05-19T02:21:49;96437.09;;;9.70;100.00
11085;BME280;5596;46.826;8.650;2023-05-19T02:24:16;96434.66;;;9.69;100.00
11085;BME280;5596;46.826;8.650;2023-05-19T02:26:43;96441.31;;;9.66;100.00
11085;BME280;5596;46.826;8.650;2023-05-19T02:29:09;96435.72;;;9.61;100.00
11085;BME280;5596;46.826;8.650;2023-05-19T02:31:36;96435.59;;;9.56;100.00
11085;BME280;5596;46.826;8.650;2023-05-19T02:34:03;96437.66;;;9.54;100.00
11085;BME280;5596;46.826;8.650;2023-05-19T02:36:33;96439.78;;;9.52;100.00
11085;BME280;5596;46.826;8.650;2023-05-19T02:39:00;96438.78;;;9.46;100.00
11085;BME280;5596;46.826;8.650;2023-05-19T02:41:28;96431.16;;;9.43;100.00
11085;BME280;5596;46.826;8.650;2023-05-19T02:43:55;96423.72;;;9.39;100.00
11085;BME280;5596;46.826;8.650;2023-05-19T02:46:23;96425.38;;;9.40;100.00
11085;BME280;5596;46.826;8.650;2023-05-19T02:48:50;96418.72;;;9.42;100.00
11085;BME280;5596;46.826;8.650;2023-05-19T02:51:16;96412.88;;;9.45;100.00
11085;BME280;5596;46.826;8.650;2023-05-19T02:53:45;96417.69;;;9.43;100.00
11085;BME280;5596;46.826;8.650;2023-05-19T02:56:12;96419.97;;;9.40;100.00
11085;BME280;5596;46.826;8.650;2023-05-19T02:58:39;96414.59;;;9.40;100.00
11085;BME280;5596;46.826;8.650;2023-05-19T03:01:07;96422.88;;;9.38;100.00
11085;BME280;5596;46.826;8.650;2023-05-19T03:03:34;96411.91;;;9.40;100.00
11085;BME280;5596;46.826;8.650;2023-05-19T03:06:01;96415.81;;;9.44;100.00
11085;BME280;5596;46.826;8.650;2023-05-19T03:08:28;96409.97;;;9.47;100.00
11085;BME280;5596;46.826;8.650;2023-05-19T03:10:56;96403.75;;;9.46;100.00
11085;BME280;5596;46.826;8.650;2023-05-19T03:13:23;96405.03;;;9.44;100.00
11085;BME280;5596;46.826;8.650;2023-05-19T03:15:50;96398.00;;;9.43;100.00
11085;BME280;5596;46.826;8.650;2023-05-19T03:18:17;96399.47;;;9.39;100.00
11085;BME280;5596;46.826;8.650;2023-05-19T03:20:43;96405.91;;;9.38;100.00
11085;BME280;5596;46.826;8.650;2023-05-19T03:23:10;96405.13;;;9.31;100.00
11085;BME280;5596;46.826;8.650;2023-05-19T03:25:37;96399.75;;;9.31;100.00
11085;BME280;5596;46.826;8.650;2023-05-19T03:28:05;96406.78;;;9.32;100.00
11085;BME280;5596;46.826;8.650;2023-05-19T03:30:32;96404.31;;;9.30;100.00
11085;BME280;5596;46.826;8.650;2023-05-19T03:33:10;96405.34;;;9.29;100.00
11085;BME280;5596;46.826;8.650;2023-05-19T03:35:38;96404.31;;;9.30;100.00
11085;BME280;5596;46.826;8.650;2023-05-19T03:38:05;96407.22;;;9.29;100.00
11085;BME280;5596;46.826;8.650;2023-05-19T03:40:31;96408.50;;;9.26;100.00
11085;BME280;5596;46.826;8.650;2023-05-19T03:43:03;96386.94;;;9.26;100.00
11085;BME280;5596;46.826;8.650;2023-05-19T03:45:37;96414.72;;;9.27;100.00
11085;BME280;5596;46.826;8.650;2023-05-19T03:48:23;96406.63;;;9.27;100.00
11085;BME280;5596;46.826;8.650;2023-05-19T03:51:16;96404.53;;;9.29;100.00
11085;BME280;5596;46.826;8.650;2023-05-19T03:53:44;96410.53;;;9.31;100.00
11085;BME280;5596;46.826;8.650;2023-05-19T03:56:13;96421.09;;;9.32;100.00
11085;BME280;5596;46.826;8.650;2023-05-19T03:58:42;96415.47;;;9.34;100.00
11085;BME280;5596;46.826;8.650;2023-05-19T04:01:12;96416.31;;;9.34;100.00
11085;BME280;5596;46.826;8.650;2023-05-19T04:03:39;96413.81;;;9.33;100.00
11085;BME280;5596;46.826;8.650;2023-05-19T04:06:06;96418.38;;;9.32;100.00
11085;BME280;5596;46.826;8.650;2023-05-19T04:08:33;96425.22;;;9.35;100.00
11085;BME280;5596;46.826;8.650;2023-05-19T04:11:01;96420.41;;;9.37;100.00
11085;BME280;5596;46.826;8.650;2023-05-19T04:13:28;96421.63;;;9.41;100.00
11085;BME280;5596;46.826;8.650;2023-05-19T04:15:55;96413.69;;;9.46;100.00
11085;BME280;5596;46.826;8.650;2023-05-19T04:18:24;96427.34;;;9.51;100.00
11085;BME280;5596;46.826;8.650;2023-05-19T04:20:50;96432.28;;;9.54;100.00
11085;BME280;5596;46.826;8.650;2023-05-19T04:23:18;96430.19;;;9.56;100.00
11085;BME280;5596;46.826;8.650;2023-05-19T04:25:45;96432.25;;;9.61;100.00
11085;BME280;5596;46.826;8.650;2023-05-19T04:28:12;96429.28;;;9.62;100.00
11085;BME280;5596;46.826;8.650;2023-05-19T04:30:39;96435.28;;;9.64;100.00
11085;BME280;5596;46.826;8.650;2023-05-19T04:33:07;96427.22;;;9.64;100.00
11085;BME280;5596;46.826;8.650;2023-05-19T04:35:37;96434.25;;;9.65;100.00
11085;BME280;5596;46.826;8.650;2023-05-19T04:38:06;96434.47;;;9.64;100.00
11085;BME280;5596;46.826;8.650;2023-05-19T04:40:34;96430.41;;;9.55;100.00
11085;BME280;5596;46.826;8.650;2023-05-19T04:43:01;96431.44;;;9.54;100.00
11085;BME280;5596;46.826;8.650;2023-05-19T04:45:29;96437.22;;;9.57;100.00
11085;BME280;5596;46.826;8.650;2023-05-19T04:47:59;96442.41;;;9.59;100.00
11085;BME280;5596;46.826;8.650;2023-05-19T04:50:26;96440.06;;;9.62;100.00
11085;BME280;5596;46.826;8.650;2023-05-19T04:52:55;96440.97;;;9.56;100.00
11085;BME280;5596;46.826;8.650;2023-05-19T04:55:24;96448.44;;;9.54;100.00
11085;BME280;5596;46.826;8.650;2023-05-19T04:57:51;96441.69;;;9.45;100.00
11085;BME280;5596;46.826;8.650;2023-05-19T05:00:19;96446.03;;;9.46;100.00
11085;BME280;5596;46.826;8.650;2023-05-19T05:02:57;96441.25;;;9.48;100.00
11085;BME280;5596;46.826;8.650;2023-05-19T05:05:27;96447.25;;;9.50;100.00
11085;BME280;5596;46.826;8.650;2023-05-19T05:07:55;96448.91;;;9.51;100.00
11085;BME280;5596;46.826;8.650;2023-05-19T05:10:24;96446.78;;;9.53;100.00
11085;BME280;5596;46.826;8.650;2023-05-19T05:12:52;96442.63;;;9.57;100.00
11085;BME280;5596;46.826;8.650;2023-05-19T05:15:19;96442.19;;;9.60;100.00
11085;BME280;5596;46.826;8.650;2023-05-19T05:17:50;96438.44;;;9.61;100.00
11085;BME280;5596;46.826;8.650;2023-05-19T05:20:17;96443.25;;;9.59;100.00
11085;BME280;5596;46.826;8.650;2023-05-19T05:22:45;96442.19;;;9.60;100.00
11085;BME280;5596;46.826;8.650;2023-05-19T05:25:16;96434.69;;;9.62;100.00
11085;BME280;5596;46.826;8.650;2023-05-19T05:27:43;96435.09;;;9.66;100.00
11085;BME280;5596;46.826;8.650;2023-05-19T05:30:12;96440.63;;;9.71;100.00
11085;BME280;5596;46.826;8.650;2023-05-19T05:32:40;96433.97;;;9.73;100.00
11085;BME280;5596;46.826;8.650;2023-05-19T05:35:15;96439.16;;;9.75;100.00
11085;BME280;5596;46.826;8.650;2023-05-19T05:37:42;96430.88;;;9.70;100.00
11085;BME280;5596;46.826;8.650;2023-05-19T05:40:09;96424.28;;;9.66;100.00
11085;BME280;5596;46.826;8.650;2023-05-19T05:42:37;96433.00;;;9.68;100.00
11085;BME280;5596;46.826;8.650;2023-05-19T05:45:05;96432.78;;;9.69;100.00
11085;BME280;5596;46.826;8.650;2023-05-19T05:47:32;96427.97;;;9.71;100.00
11085;BME280;5596;46.826;8.650;2023-05-19T05:50:02;96426.03;;;9.78;100.00
11085;BME280;5596;46.826;8.650;2023-05-19T05:52:29;96423.63;;;9.88;100.00
11085;BME280;5596;46.826;8.650;2023-05-19T05:54:59;96427.25;;;10.01;100.00
11085;BME280;5596;46.826;8.650;2023-05-19T05:57:27;96433.38;;;10.08;100.00
11085;BME280;5596;46.826;8.650;2023-05-19T05:59:57;96425.00;;;10.16;100.00
11085;BME280;5596;46.826;8.650;2023-05-19T06:02:23;96433.25;;;10.21;100.00
11085;BME280;5596;46.826;8.650;2023-05-19T06:04:53;96425.53;;;10.24;100.00
11085;BME280;5596;46.826;8.650;2023-05-19T06:07:19;96431.78;;;10.25;100.00
11085;BME280;5596;46.826;8.650;2023-05-19T06:09:46;96424.63;;;10.31;100.00
11085;BME280;5596;46.826;8.650;2023-05-19T06:12:13;96415.66;;;10.37;100.00
11085;BME280;5596;46.826;8.650;2023-05-19T06:14:45;96428.00;;;10.44;100.00
11085;BME280;5596;46.826;8.650;2023-05-19T06:17:36;96420.88;;;10.50;100.00
11085;BME280;5596;46.826;8.650;2023-05-19T06:20:03;96419.94;;;10.56;100.00
11085;BME280;5596;46.826;8.650;2023-05-19T06:22:31;96416.09;;;10.63;100.00
11085;BME280;5596;46.826;8.650;2023-05-19T06:25:00;96422.69;;;10.68;100.00
11085;BME280;5596;46.826;8.650;2023-05-19T06:27:27;96424.03;;;10.77;100.00
11085;BME280;5596;46.826;8.650;2023-05-19T06:29:54;96419.69;;;10.76;100.00
11085;BME280;5596;46.826;8.650;2023-05-19T06:32:22;96421.44;;;10.82;100.00
11085;BME280;5596;46.826;8.650;2023-05-19T06:34:51;96429.31;;;10.83;100.00
11085;BME280;5596;46.826;8.650;2023-05-19T06:37:19;96419.94;;;10.86;100.00
11085;BME280;5596;46.826;8.650;2023-05-19T06:39:47;96417.03;;;10.87;100.00
11085;BME280;5596;46.826;8.650;2023-05-19T06:42:17;96411.97;;;10.91;100.00
11085;BME280;5596;46.826;8.650;2023-05-19T06:44:54;96421.88;;;10.97;100.00
11085;BME280;5596;46.826;8.650;2023-05-19T06:47:21;96423.28;;;10.99;100.00
11085;BME280;5596;46.826;8.650;2023-05-19T06:49:51;96418.84;;;11.05;100.00
11085;BME280;5596;46.826;8.650;2023-05-19T06:52:22;96415.31;;;11.16;100.00
11085;BME280;5596;46.826;8.650;2023-05-19T06:54:49;96416.84;;;11.24;100.00
11085;BME280;5596;46.826;8.650;2023-05-19T06:57:16;96413.25;;;11.30;100.00
11085;BME280;5596;46.826;8.650;2023-05-19T06:59:43;96417.47;;;11.37;100.00
11085;BME280;5596;46.826;8.650;2023-05-19T07:02:11;96415.72;;;11.43;100.00
11085;BME280;5596;46.826;8.650;2023-05-19T07:04:38;96416.09;;;11.47;100.00
11085;BME280;5596;46.826;8.650;2023-05-19T07:07:07;96415.47;;;11.45;100.00
11085;BME280;5596;46.826;8.650;2023-05-19T07:09:35;96420.19;;;11.49;100.00
11085;BME280;5596;46.826;8.650;2023-05-19T07:12:02;96420.66;;;11.58;100.00
11085;BME280;5596;46.826;8.650;2023-05-19T07:14:29;96416.53;;;11.67;100.00
11085;BME280;5596;46.826;8.650;2023-05-19T07:16:56;96420.56;;;11.76;100.00
11085;BME280;5596;46.826;8.650;2023-05-19T07:19:23;96420.72;;;11.81;100.00
11085;BME280;5596;46.826;8.650;2023-05-19T07:21:53;96413.41;;;11.82;100.00
11085;BME280;5596;46.826;8.650;2023-05-19T07:24:23;96421.41;;;11.88;100.00
11085;BME280;5596;46.826;8.650;2023-05-19T07:26:51;96413.63;;;11.92;100.00
11085;BME280;5596;46.826;8.650;2023-05-19T07:29:18;96416.22;;;11.98;100.00
11085;BME280;5596;46.826;8.650;2023-05-19T07:31:45;96414.22;;;12.05;100.00
11085;BME280;5596;46.826;8.650;2023-05-19T07:34:12;96416.63;;;12.19;100.00
11085;BME280;5596;46.826;8.650;2023-05-19T07:36:39;96416.63;;;12.19;100.00
11085;BME280;5596;46.826;8.650;2023-05-19T07:39:06;96408.16;;;12.27;100.00
11085;BME280;5596;46.826;8.650;2023-05-19T07:41:34;96416.16;;;12.33;100.00
11085;BME280;5596;46.826;8.650;2023-05-19T07:44:01;96410.38;;;12.30;100.00
11085;BME280;5596;46.826;8.650;2023-05-19T07:46:31;96415.06;;;12.34;100.00
11085;BME280;5596;46.826;8.650;2023-05-19T07:48:58;96413.69;;;12.32;100.00
11085;BME280;5596;46.826;8.650;2023-05-19T07:51:25;96414.38;;;12.39;100.00
11085;BME280;5596;46.826;8.650;2023-05-19T07:53:52;96413.97;;;12.47;100.00
11085;BME280;5596;46.826;8.650;2023-05-19T07:56:19;96409.34;;;12.59;100.00
11085;BME280;5596;46.826;8.650;2023-05-19T07:58:47;96412.53;;;12.56;100.00
11085;BME280;5596;46.826;8.650;2023-05-19T08:01:14;96412.88;;;12.60;100.00
11085;BME280;5596;46.826;8.650;2023-05-19T08:03:40;96405.69;;;12.65;100.00
11085;BME280;5596;46.826;8.650;2023-05-19T08:06:08;96396.25;;;12.84;100.00
11085;BME280;5596;46.826;8.650;2023-05-19T08:08:35;96417.00;;;12.91;100.00
11085;BME280;5596;46.826;8.650;2023-05-19T08:11:02;96402.38;;;12.92;100.00
11085;BME280;5596;46.826;8.650;2023-05-19T08:13:29;96411.91;;;12.94;100.00
11085;BME280;5596;46.826;8.650;2023-05-19T08:15:58;96409.94;;;12.89;100.00
11085;BME280;5596;46.826;8.650;2023-05-19T08:18:24;96403.00;;;12.82;100.00
11085;BME280;5596;46.826;8.650;2023-05-19T08:20:52;96398.66;;;12.81;100.00
11085;BME280;5596;46.826;8.650;2023-05-19T08:23:19;96404.31;;;12.79;100.00
11085;BME280;5596;46.826;8.650;2023-05-19T08:25:46;96401.69;;;12.84;100.00
11085;BME280;5596;46.826;8.650;2023-05-19T08:28:12;96402.69;;;12.95;100.00
11085;BME280;5596;46.826;8.650;2023-05-19T08:30:40;96404.78;;;13.05;100.00
11085;BME280;5596;46.826;8.650;2023-05-19T08:33:08;96404.78;;;13.05;100.00
11085;BME280;5596;46.826;8.650;2023-05-19T08:35:35;96408.91;;;13.07;100.00
11085;BME280;5596;46.826;8.650;2023-05-19T08:38:02;96400.41;;;13.04;100.00
11085;BME280;5596;46.826;8.650;2023-05-19T08:40:29;96399.19;;;13.11;100.00
11085;BME280;5596;46.826;8.650;2023-05-19T08:42:56;96403.78;;;13.11;100.00
11085;BME280;5596;46.826;8.650;2023-05-19T08:45:23;96400.16;;;13.17;100.00
11085;BME280;5596;46.826;8.650;2023-05-19T08:47:51;96393.66;;;13.35;100.00
11085;BME280;5596;46.826;8.650;2023-05-19T08:50:21;96399.75;;;13.42;100.00
11085;BME280;5596;46.826;8.650;2023-05-19T08:52:50;96396.78;;;13.43;100.00
11085;BME280;5596;46.826;8.650;2023-05-19T08:55:19;96401.47;;;13.48;100.00
11085;BME280;5596;46.826;8.650;2023-05-19T08:57:50;96395.16;;;13.42;100.00
11085;BME280;5596;46.826;8.650;2023-05-19T09:00:17;96392.97;;;13.44;100.00
11085;BME280;5596;46.826;8.650;2023-05-19T09:02:46;96396.38;;;13.35;100.00
11085;BME280;5596;46.826;8.650;2023-05-19T09:05:14;96390.69;;;13.36;100.00
11085;BME280;5596;46.826;8.650;2023-05-19T09:07:43;96391.28;;;13.38;100.00
11085;BME280;5596;46.826;8.650;2023-05-19T09:10:10;96394.09;;;13.43;100.00
11085;BME280;5596;46.826;8.650;2023-05-19T09:12:39;96393.25;;;13.43;100.00
11085;BME280;5596;46.826;8.650;2023-05-19T09:15:07;96387.97;;;13.36;100.00
11085;BME280;5596;46.826;8.650;2023-05-19T09:17:34;96378.34;;;13.45;100.00
11085;BME280;5596;46.826;8.650;2023-05-19T09:20:02;96379.34;;;13.56;100.00
11085;BME280;5596;46.826;8.650;2023-05-19T09:22:32;96377.47;;;13.56;100.00
11085;BME280;5596;46.826;8.650;2023-05-19T09:25:02;96385.66;;;13.61;100.00
11085;BME280;5596;46.826;8.650;2023-05-19T09:27:29;96383.44;;;13.75;100.00
11085;BME280;5596;46.826;8.650;2023-05-19T09:30:03;96382.13;;;13.78;100.00
11085;BME280;5596;46.826;8.650;2023-05-19T09:32:33;96374.88;;;13.83;100.00
11085;BME280;5596;46.826;8.650;2023-05-19T09:35:01;96377.78;;;13.98;100.00
11085;BME280;5596;46.826;8.650;2023-05-19T09:37:29;96375.75;;;13.89;100.00
11085;BME280;5596;46.826;8.650;2023-05-19T09:39:56;96378.56;;;13.94;100.00
11085;BME280;5596;46.826;8.650;2023-05-19T09:42:25;96375.00;;;13.93;100.00
11085;BME280;5596;46.826;8.650;2023-05-19T09:45:00;96372.94;;;14.00;100.00
11085;BME280;5596;46.826;8.650;2023-05-19T09:47:31;96370.09;;;14.12;100.00
11085;BME280;5596;46.826;8.650;2023-05-19T09:49:58;96370.66;;;14.14;100.00
11085;BME280;5596;46.826;8.650;2023-05-19T09:52:25;96367.44;;;14.17;100.00
11085;BME280;5596;46.826;8.650;2023-05-19T09:54:52;96358.16;;;14.13;100.00
11085;BME280;5596;46.826;8.650;2023-05-19T09:57:25;96361.63;;;14.09;100.00
11085;BME280;5596;46.826;8.650;2023-05-19T09:59:53;96354.81;;;14.06;100.00
11085;BME280;5596;46.826;8.650;2023-05-19T10:02:21;96360.56;;;14.10;100.00
11085;BME280;5596;46.826;8.650;2023-05-19T10:04:50;96350.59;;;14.15;100.00
11085;BME280;5596;46.826;8.650;2023-05-19T10:07:18;96358.81;;;14.20;100.00
11085;BME280;5596;46.826;8.650;2023-05-19T10:09:45;96358.25;;;14.18;100.00
11085;BME280;5596;46.826;8.650;2023-05-19T10:12:14;96357.47;;;14.23;100.00
11085;BME280;5596;46.826;8.650;2023-05-19T10:14:44;96356.19;;;14.30;100.00
11085;BME280;5596;46.826;8.650;2023-05-19T10:17:11;96347.31;;;14.35;100.00
11085;BME280;5596;46.826;8.650;2023-05-19T10:19:39;96354.53;;;14.29;100.00
11085;BME280;5596;46.826;8.650;2023-05-19T10:22:06;96352.13;;;14.28;100.00
11085;BME280;5596;46.826;8.650;2023-05-19T10:24:33;96353.31;;;14.37;100.00
11085;BME280;5596;46.826;8.650;2023-05-19T10:27:01;96350.00;;;14.57;100.00
11085;BME280;5596;46.826;8.650;2023-05-19T10:29:29;96351.41;;;14.59;100.00
11085;BME280;5596;46.826;8.650;2023-05-19T10:32:02;96353.25;;;14.54;100.00
11085;BME280;5596;46.826;8.650;2023-05-19T10:37:15;96356.34;;;14.41;100.00
11085;BME280;5596;46.826;8.650;2023-05-19T10:39:44;96354.38;;;14.36;100.00
11085;BME280;5596;46.826;8.650;2023-05-19T10:42:12;96359.94;;;14.24;100.00
11085;BME280;5596;46.826;8.650;2023-05-19T10:44:44;96360.25;;;14.06;100.00
11085;BME280;5596;46.826;8.650;2023-05-19T10:47:14;96360.00;;;14.08;100.00
11085;BME280;5596;46.826;8.650;2023-05-19T10:49:47;96357.91;;;14.15;100.00
11085;BME280;5596;46.826;8.650;2023-05-19T10:52:21;96359.56;;;14.16;100.00
11085;BME280;5596;46.826;8.650;2023-05-19T10:54:50;96358.88;;;14.25;100.00
11085;BME280;5596;46.826;8.650;2023-05-19T10:57:18;96358.81;;;14.42;100.00
11085;BME280;5596;46.826;8.650;2023-05-19T10:59:46;96364.50;;;14.41;100.00
11085;BME280;5596;46.826;8.650;2023-05-19T11:04:58;96359.50;;;14.32;100.00
11085;BME280;5596;46.826;8.650;2023-05-19T11:07:33;96369.72;;;14.25;100.00
11085;BME280;5596;46.826;8.650;2023-05-19T11:10:03;96360.50;;;14.26;100.00
11085;BME280;5596;46.826;8.650;2023-05-19T11:12:38;96371.00;;;14.39;100.00
11085;BME280;5596;46.826;8.650;2023-05-19T11:15:06;96366.41;;;14.40;100.00
11085;BME280;5596;46.826;8.650;2023-05-19T11:17:33;96367.69;;;14.37;100.00
11085;BME280;5596;46.826;8.650;2023-05-19T11:20:02;96372.06;;;14.38;100.00
11085;BME280;5596;46.826;8.650;2023-05-19T11:22:35;96373.72;;;14.39;100.00
11085;BME280;5596;46.826;8.650;2023-05-19T11:25:03;96365.06;;;14.43;100.00
11085;BME280;5596;46.826;8.650;2023-05-19T11:27:32;96368.75;;;14.53;100.00
11085;BME280;5596;46.826;8.650;2023-05-19T11:30:07;96371.09;;;14.45;100.00
11085;BME280;5596;46.826;8.650;2023-05-19T11:32:38;96362.84;;;14.39;100.00
11085;BME280;5596;46.826;8.650;2023-05-19T11:35:09;96368.22;;;14.34;100.00
11085;BME280;5596;46.826;8.650;2023-05-19T11:37:36;96376.94;;;14.36;100.00
11085;BME280;5596;46.826;8.650;2023-05-19T11:40:05;96366.06;;;14.36;100.00
11085;BME280;5596;46.826;8.650;2023-05-19T11:42:33;96369.56;;;14.54;100.00
11085;BME280;5596;46.826;8.650;2023-05-19T11:45:01;96370.25;;;14.44;100.00
11085;BME280;5596;46.826;8.650;2023-05-19T11:47:29;96365.75;;;14.55;100.00
11085;BME280;5596;46.826;8.650;2023-05-19T11:49:56;96361.44;;;14.59;100.00
11085;BME280;5596;46.826;8.650;2023-05-19T11:52:25;96369.09;;;14.62;100.00
11085;BME280;5596;46.826;8.650;2023-05-19T11:54:52;96366.63;;;14.60;100.00
11085;BME280;5596;46.826;8.650;2023-05-19T11:57:21;96365.94;;;14.70;100.00
11085;BME280;5596;46.826;8.650;2023-05-19T11:59:47;96364.41;;;14.79;100.00
11085;BME280;5596;46.826;8.650;2023-05-19T12:02:16;96360.50;;;14.70;100.00
11085;BME280;5596;46.826;8.650;2023-05-19T12:04:44;96351.56;;;14.74;100.00
11085;BME280;5596;46.826;8.650;2023-05-19T12:07:10;96359.78;;;14.80;100.00
11085;BME280;5596;46.826;8.650;2023-05-19T12:09:41;96358.53;;;14.92;100.00
11085;BME280;5596;46.826;8.650;2023-05-19T12:12:11;96361.22;;;14.87;100.00
11085;BME280;5596;46.826;8.650;2023-05-19T12:14:39;96355.13;;;14.80;100.00
11085;BME280;5596;46.826;8.650;2023-05-19T12:17:10;96357.22;;;14.68;100.00
11085;BME280;5596;46.826;8.650;2023-05-19T12:19:38;96359.88;;;14.63;100.00
11085;BME280;5596;46.826;8.650;2023-05-19T12:22:05;96358.63;;;14.49;100.00
11085;BME280;5596;46.826;8.650;2023-05-19T12:24:32;96362.25;;;14.37;100.00
11085;BME280;5596;46.826;8.650;2023-05-19T12:27:05;96360.13;;;14.39;100.00
11085;BME280;5596;46.826;8.650;2023-05-19T12:29:33;96354.72;;;14.39;100.00
11085;BME280;5596;46.826;8.650;2023-05-19T12:32:00;96365.25;;;14.36;100.00
11085;BME280;5596;46.826;8.650;2023-05-19T12:34:29;96372.94;;;14.22;100.00
11085;BME280;5596;46.826;8.650;2023-05-19T12:36:56;96376.22;;;14.24;100.00
11085;BME280;5596;46.826;8.650;2023-05-19T12:39:23;96372.94;;;14.22;100.00
11085;BME280;5596;46.826;8.650;2023-05-19T12:41:50;96372.31;;;14.15;100.00
11085;BME280;5596;46.826;8.650;2023-05-19T12:44:18;96366.31;;;14.13;100.00
11085;BME280;5596;46.826;8.650;2023-05-19T12:46:45;96364.59;;;14.07;100.00
11085;BME280;5596;46.826;8.650;2023-05-19T12:49:12;96375.06;;;13.98;100.00
11085;BME280;5596;46.826;8.650;2023-05-19T12:51:40;96369.88;;;13.97;100.00
11085;BME280;5596;46.826;8.650;2023-05-19T12:54:07;96364.66;;;13.90;100.00
11085;BME280;5596;46.826;8.650;2023-05-19T12:56:34;96365.41;;;13.86;100.00
11085;BME280;5596;46.826;8.650;2023-05-19T12:59:01;96369.19;;;13.85;100.00
11085;BME280;5596;46.826;8.650;2023-05-19T13:01:29;96368.38;;;13.84;100.00
11085;BME280;5596;46.826;8.650;2023-05-19T13:03:57;96361.59;;;13.87;100.00
11085;BME280;5596;46.826;8.650;2023-05-19T13:06:24;96369.69;;;13.82;100.00
11085;BME280;5596;46.826;8.650;2023-05-19T13:08:51;96363.13;;;13.78;100.00
11085;BME280;5596;46.826;8.650;2023-05-19T13:11:18;96358.78;;;13.77;100.00
11085;BME280;5596;46.826;8.650;2023-05-19T13:13:46;96361.41;;;13.72;100.00
11085;BME280;5596;46.826;8.650;2023-05-19T13:16:13;96357.31;;;13.69;100.00
11085;BME280;5596;46.826;8.650;2023-05-19T13:18:42;96355.25;;;13.59;100.00
11085;BME280;5596;46.826;8.650;2023-05-19T13:21:08;96351.72;;;13.59;100.00
11085;BME280;5596;46.826;8.650;2023-05-19T13:23:35;96357.97;;;13.59;100.00